sensor_id;sensor_type;location;lat;lon;timestamp;temperature;humidity
25668;DHT22;18003;-33.830;151.202;2023-08-31T00:00:43;16.50;99.90
25668;DHT22;18003;-33.830;151.202;2023-08-31T00:03:13;16.50;99.90
25668;DHT22;18003;-33.830;151.202;2023-08-31T00:05:44;16.50;99.90
25668;DHT22;18003;-33.830;151.202;2023-08-31T00:08:16;16.50;99.90
25668;DHT22;18003;-33.830;151.202;2023-08-31T00:10:54;16.50;99.90
25668;DHT22;18003;-33.830;151.202;2023-08-31T00:13:18;16.50;99.90
25668;DHT22;18003;-33.830;151.202;2023-08-31T00:15:47;16.50;99.90
25668;DHT22;18003;-33.830;151.202;2023-08-31T00:18:18;16.50;99.90
25668;DHT22;18003;-33.830;151.202;2023-08-31T00:20:49;16.60;99.90
25668;DHT22;18003;-33.830;151.202;2023-08-31T00:23:19;16.60;99.90
25668;DHT22;18003;-33.830;151.202;2023-08-31T00:25:49;16.60;99.90
25668;DHT22;18003;-33.830;151.202;2023-08-31T00:28:20;16.60;99.90
25668;DHT22;18003;-33.830;151.202;2023-08-31T00:30:50;16.60;99.90
25668;DHT22;18003;-33.830;151.202;2023-08-31T00:33:20;16.60;99.90
25668;DHT22;18003;-33.830;151.202;2023-08-31T00:35:50;16.70;99.90
25668;DHT22;18003;-33.830;151.202;2023-08-31T00:38:20;16.60;99.90
25668;DHT22;18003;-33.830;151.202;2023-08-31T00:40:50;16.70;99.90
25668;DHT22;18003;-33.830;151.202;2023-08-31T00:43:21;16.70;99.90
25668;DHT22;18003;-33.830;151.202;2023-08-31T00:45:52;16.70;99.90
25668;DHT22;18003;-33.830;151.202;2023-08-31T00:48:24;16.70;99.90
25668;DHT22;18003;-33.830;151.202;2023-08-31T00:50:55;16.60;99.90
25668;DHT22;18003;-33.830;151.202;2023-08-31T00:53:25;16.70;99.90
25668;DHT22;18003;-33.830;151.202;2023-08-31T00:55:55;16.70;99.90
25668;DHT22;18003;-33.830;151.202;2023-08-31T00:58:25;16.70;99.90
25668;DHT22;18003;-33.830;151.202;2023-08-31T01:01:18;16.70;99.90
25668;DHT22;18003;-33.830;151.202;2023-08-31T01:04:25;16.70;99.90
25668;DHT22;18003;-33.830;151.202;2023-08-31T01:07:19;16.70;99.90
25668;DHT22;18003;-33.830;151.202;2023-08-31T01:10:04;16.70;99.90
25668;DHT22;18003;-33.830;151.202;2023-08-31T01:12:43;16.70;99.90
25668;DHT22;18003;-33.830;151.202;2023-08-31T01:15:12;16.70;99.90
25668;DHT22;18003;-33.830;151.202;2023-08-31T01:17:50;16.70;99.90
25668;DHT22;18003;-33.830;151.202;2023-08-31T01:20:34;16.80;99.90
25668;DHT22;18003;-33.830;151.202;2023-08-31T01:23:06;16.80;99.90
25668;DHT22;18003;-33.830;151.202;2023-08-31T01:25:36;16.70;99.90
25668;DHT22;18003;-33.830;151.202;2023-08-31T01:28:06;16.80;99.90
25668;DHT22;18003;-33.830;151.202;2023-08-31T01:30:37;16.90;99.90
25668;DHT22;18003;-33.830;151.202;2023-08-31T01:33:07;17.00;99.90
25668;DHT22;18003;-33.830;151.202;2023-08-31T01:35:42;17.10;99.90
25668;DHT22;18003;-33.830;151.202;2023-08-31T01:38:12;17.10;99.90
25668;DHT22;18003;-33.830;151.202;2023-08-31T01:41:00;17.10;99.90
25668;DHT22;18003;-33.830;151.202;2023-08-31T01:43:29;17.10;99.90
25668;DHT22;18003;-33.830;151.202;2023-08-31T01:45:59;17.20;99.90
25668;DHT22;18003;-33.830;151.202;2023-08-31T01:48:30;17.20;99.90
25668;DHT22;18003;-33.830;151.202;2023-08-31T01:51:01;17.20;99.90
25668;DHT22;18003;-33.830;151.202;2023-08-31T01:53:31;17.20;99.90
25668;DHT22;18003;-33.830;151.202;2023-08-31T01:56:01;17.20;99.90
25668;DHT22;18003;-33.830;151.202;2023-08-31T01:58:31;17.20;99.90
25668;DHT22;18003;-33.830;151.202;2023-08-31T02:01:01;17.30;99.90
25668;DHT22;18003;-33.830;151.202;2023-08-31T02:03:31;17.30;99.90
25668;DHT22;18003;-33.830;151.202;2023-08-31T02:06:01;17.30;99.90
25668;DHT22;18003;-33.830;151.202;2023-08-31T02:08:32;17.30;99.90
25668;DHT22;18003;-33.830;151.202;2023-08-31T02:11:02;17.20;99.90
25668;DHT22;18003;-33.830;151.202;2023-08-31T02:13:32;17.20;99.90
25668;DHT22;18003;-33.830;151.202;2023-08-31T02:16:02;17.10;99.90
25668;DHT22;18003;-33.830;151.202;2023-08-31T02:18:33;17.20;99.90
25668;DHT22;18003;-33.830;151.202;2023-08-31T02:21:03;17.20;99.90
25668;DHT22;18003;-33.830;151.202;2023-08-31T02:23:34;17.20;99.90
25668;DHT22;18003;-33.830;151.202;2023-08-31T02:26:04;17.10;99.90
25668;DHT22;18003;-33.830;151.202;2023-08-31T02:28:35;17.10;99.90
25668;DHT22;18003;-33.830;151.202;2023-08-31T02:31:05;17.10;99.90
25668;DHT22;18003;-33.830;151.202;2023-08-31T02:33:35;17.10;99.90
25668;DHT22;18003;-33.830;151.202;2023-08-31T02:36:05;17.00;99.90
25668;DHT22;18003;-33.830;151.202;2023-08-31T02:38:35;17.00;99.90
25668;DHT22;18003;-33.830;151.202;2023-08-31T02:41:06;17.00;99.90
25668;DHT22;18003;-33.830;151.202;2023-08-31T02:43:36;17.00;99.90
25668;DHT22;18003;-33.830;151.202;2023-08-31T02:46:07;17.00;99.90
25668;DHT22;18003;-33.830;151.202;2023-08-31T02:48:38;17.00;99.90
25668;DHT22;18003;-33.830;151.202;2023-08-31T02:51:08;17.00;99.90
25668;DHT22;18003;-33.830;151.202;2023-08-31T02:53:39;17.00;99.90
25668;DHT22;18003;-33.830;151.202;2023-08-31T02:56:09;17.00;99.90
25668;DHT22;18003;-33.830;151.202;2023-08-31T02:58:40;17.10;99.90
25668;DHT22;18003;-33.830;151.202;2023-08-31T03:01:12;17.40;99.90
25668;DHT22;18003;-33.830;151.202;2023-08-31T03:03:41;17.70;99.90
25668;DHT22;18003;-33.830;151.202;2023-08-31T03:06:13;17.80;99.90
25668;DHT22;18003;-33.830;151.202;2023-08-31T03:08:45;18.00;99.90
25668;DHT22;18003;-33.830;151.202;2023-08-31T03:11:15;18.10;99.90
25668;DHT22;18003;-33.830;151.202;2023-08-31T03:13:48;18.20;99.90
25668;DHT22;18003;-33.830;151.202;2023-08-31T03:16:19;18.10;99.90
25668;DHT22;18003;-33.830;151.202;2023-08-31T03:18:49;18.20;99.90
25668;DHT22;18003;-33.830;151.202;2023-08-31T03:21:19;18.20;99.90
25668;DHT22;18003;-33.830;151.202;2023-08-31T03:23:50;18.20;99.90
25668;DHT22;18003;-33.830;151.202;2023-08-31T03:26:22;18.30;99.90
25668;DHT22;18003;-33.830;151.202;2023-08-31T03:28:53;18.40;99.90
25668;DHT22;18003;-33.830;151.202;2023-08-31T03:31:26;18.40;99.90
25668;DHT22;18003;-33.830;151.202;2023-08-31T03:33:56;18.40;99.90
25668;DHT22;18003;-33.830;151.202;2023-08-31T03:36:26;18.40;99.90
25668;DHT22;18003;-33.830;151.202;2023-08-31T03:38:56;18.40;99.90
25668;DHT22;18003;-33.830;151.202;2023-08-31T03:41:26;18.40;99.90
25668;DHT22;18003;-33.830;151.202;2023-08-31T03:43:56;18.40;99.90
25668;DHT22;18003;-33.830;151.202;2023-08-31T03:46:26;18.40;99.90
25668;DHT22;18003;-33.830;151.202;2023-08-31T03:48:57;18.40;99.90
25668;DHT22;18003;-33.830;151.202;2023-08-31T03:51:27;18.30;99.90
25668;DHT22;18003;-33.830;151.202;2023-08-31T03:53:57;18.30;99.90
25668;DHT22;18003;-33.830;151.202;2023-08-31T03:56:28;18.20;99.90
25668;DHT22;18003;-33.830;151.202;2023-08-31T03:58:58;18.10;99.90
25668;DHT22;18003;-33.830;151.202;2023-08-31T04:01:28;18.20;99.90
25668;DHT22;18003;-33.830;151.202;2023-08-31T04:03:58;18.20;99.90
25668;DHT22;18003;-33.830;151.202;2023-08-31T04:06:29;18.20;99.90
25668;DHT22;18003;-33.830;151.202;2023-08-31T04:09:00;18.20;99.90
25668;DHT22;18003;-33.830;151.202;2023-08-31T04:11:31;18.10;99.90
25668;DHT22;18003;-33.830;151.202;2023-08-31T04:14:03;18.10;99.90
25668;DHT22;18003;-33.830;151.202;2023-08-31T04:16:33;18.10;99.90
25668;DHT22;18003;-33.830;151.202;2023-08-31T04:19:03;18.10;99.90
25668;DHT22;18003;-33.830;151.202;2023-08-31T04:21:34;18.10;99.90
25668;DHT22;18003;-33.830;151.202;2023-08-31T04:24:06;18.00;99.90
25668;DHT22;18003;-33.830;151.202;2023-08-31T04:26:36;18.00;99.90
25668;DHT22;18003;-33.830;151.202;2023-08-31T04:29:06;18.00;99.90
25668;DHT22;18003;-33.830;151.202;2023-08-31T04:31:36;18.10;99.90
25668;DHT22;18003;-33.830;151.202;2023-08-31T04:34:07;18.20;99.90
25668;DHT22;18003;-33.830;151.202;2023-08-31T04:36:37;18.20;99.90
25668;DHT22;18003;-33.830;151.202;2023-08-31T04:39:07;18.30;99.90
25668;DHT22;18003;-33.830;151.202;2023-08-31T04:41:38;18.30;99.90
25668;DHT22;18003;-33.830;151.202;2023-08-31T04:44:08;18.30;99.90
25668;DHT22;18003;-33.830;151.202;2023-08-31T04:46:39;18.30;99.90
25668;DHT22;18003;-33.830;151.202;2023-08-31T04:49:09;18.30;99.90
25668;DHT22;18003;-33.830;151.202;2023-08-31T04:51:40;18.20;99.90
25668;DHT22;18003;-33.830;151.202;2023-08-31T04:54:10;18.20;99.90
25668;DHT22;18003;-33.830;151.202;2023-08-31T04:56:40;18.30;99.90
25668;DHT22;18003;-33.830;151.202;2023-08-31T04:59:11;18.30;99.90
25668;DHT22;18003;-33.830;151.202;2023-08-31T05:01:41;18.20;99.90
25668;DHT22;18003;-33.830;151.202;2023-08-31T05:04:11;18.20;99.90
25668;DHT22;18003;-33.830;151.202;2023-08-31T05:06:42;18.30;99.90
25668;DHT22;18003;-33.830;151.202;2023-08-31T05:09:12;18.30;99.90
25668;DHT22;18003;-33.830;151.202;2023-08-31T05:11:42;18.20;99.90
25668;DHT22;18003;-33.830;151.202;2023-08-31T05:14:13;18.20;99.90
25668;DHT22;18003;-33.830;151.202;2023-08-31T05:16:43;18.20;99.90
25668;DHT22;18003;-33.830;151.202;2023-08-31T05:19:13;18.20;99.90
25668;DHT22;18003;-33.830;151.202;2023-08-31T05:21:43;18.10;99.90
25668;DHT22;18003;-33.830;151.202;2023-08-31T05:24:13;18.20;99.90
25668;DHT22;18003;-33.830;151.202;2023-08-31T05:26:43;18.20;99.90
25668;DHT22;18003;-33.830;151.202;2023-08-31T05:29:18;18.20;99.90
25668;DHT22;18003;-33.830;151.202;2023-08-31T05:31:45;18.10;99.90
25668;DHT22;18003;-33.830;151.202;2023-08-31T05:34:21;18.00;99.90
25668;DHT22;18003;-33.830;151.202;2023-08-31T05:36:50;18.10;99.90
25668;DHT22;18003;-33.830;151.202;2023-08-31T05:39:22;18.10;99.90
25668;DHT22;18003;-33.830;151.202;2023-08-31T05:41:53;18.10;99.90
25668;DHT22;18003;-33.830;151.202;2023-08-31T05:44:23;18.20;99.90
25668;DHT22;18003;-33.830;151.202;2023-08-31T05:46:53;18.10;99.90
25668;DHT22;18003;-33.830;151.202;2023-08-31T05:49:23;18.10;99.90
25668;DHT22;18003;-33.830;151.202;2023-08-31T05:51:54;18.10;99.90
25668;DHT22;18003;-33.830;151.202;2023-08-31T05:54:24;18.00;99.90
25668;DHT22;18003;-33.830;151.202;2023-08-31T05:56:55;18.10;99.90
25668;DHT22;18003;-33.830;151.202;2023-08-31T05:59:25;18.00;99.90
25668;DHT22;18003;-33.830;151.202;2023-08-31T06:01:56;18.00;99.90
25668;DHT22;18003;-33.830;151.202;2023-08-31T06:04:26;18.00;99.90
25668;DHT22;18003;-33.830;151.202;2023-08-31T06:06:56;18.00;99.90
25668;DHT22;18003;-33.830;151.202;2023-08-31T06:09:25;18.00;99.90
25668;DHT22;18003;-33.830;151.202;2023-08-31T06:11:55;18.00;99.90
25668;DHT22;18003;-33.830;151.202;2023-08-31T06:14:25;18.00;99.90
25668;DHT22;18003;-33.830;151.202;2023-08-31T06:16:55;18.00;99.90
25668;DHT22;18003;-33.830;151.202;2023-08-31T06:19:25;18.00;99.90
25668;DHT22;18003;-33.830;151.202;2023-08-31T06:21:57;18.00;99.90
25668;DHT22;18003;-33.830;151.202;2023-08-31T06:24:27;18.00;99.90
25668;DHT22;18003;-33.830;151.202;2023-08-31T06:26:57;18.00;99.90
25668;DHT22;18003;-33.830;151.202;2023-08-31T06:29:27;18.00;99.90
25668;DHT22;18003;-33.830;151.202;2023-08-31T06:31:57;18.00;99.90
25668;DHT22;18003;-33.830;151.202;2023-08-31T06:34:27;18.00;99.90
25668;DHT22;18003;-33.830;151.202;2023-08-31T06:36:58;17.90;99.90
25668;DHT22;18003;-33.830;151.202;2023-08-31T06:39:27;17.90;99.90
25668;DHT22;18003;-33.830;151.202;2023-08-31T06:41:58;18.00;99.90
25668;DHT22;18003;-33.830;151.202;2023-08-31T06:44:28;17.90;99.90
25668;DHT22;18003;-33.830;151.202;2023-08-31T06:46:58;17.90;99.90
25668;DHT22;18003;-33.830;151.202;2023-08-31T06:49:29;17.90;99.90
25668;DHT22;18003;-33.830;151.202;2023-08-31T06:52:01;17.90;99.90
25668;DHT22;18003;-33.830;151.202;2023-08-31T06:54:33;17.90;99.90
25668;DHT22;18003;-33.830;151.202;2023-08-31T06:57:03;17.90;99.90
25668;DHT22;18003;-33.830;151.202;2023-08-31T06:59:33;17.90;99.90
25668;DHT22;18003;-33.830;151.202;2023-08-31T07:02:03;17.80;99.90
25668;DHT22;18003;-33.830;151.202;2023-08-31T07:04:34;17.90;99.90
25668;DHT22;18003;-33.830;151.202;2023-08-31T07:07:05;17.90;99.90
25668;DHT22;18003;-33.830;151.202;2023-08-31T07:09:36;17.90;99.90
25668;DHT22;18003;-33.830;151.202;2023-08-31T07:12:06;17.90;99.90
25668;DHT22;18003;-33.830;151.202;2023-08-31T07:14:36;17.90;99.90
25668;DHT22;18003;-33.830;151.202;2023-08-31T07:17:06;17.80;99.90
25668;DHT22;18003;-33.830;151.202;2023-08-31T07:19:39;17.80;99.90
25668;DHT22;18003;-33.830;151.202;2023-08-31T07:22:09;17.80;99.90
25668;DHT22;18003;-33.830;151.202;2023-08-31T07:24:41;17.80;99.90
25668;DHT22;18003;-33.830;151.202;2023-08-31T07:27:11;17.80;99.90
25668;DHT22;18003;-33.830;151.202;2023-08-31T07:29:41;17.80;99.90
25668;DHT22;18003;-33.830;151.202;2023-08-31T07:32:11;17.80;99.90
25668;DHT22;18003;-33.830;151.202;2023-08-31T07:34:41;17.70;99.90
25668;DHT22;18003;-33.830;151.202;2023-08-31T07:37:11;17.60;99.90
25668;DHT22;18003;-33.830;151.202;2023-08-31T07:39:42;17.30;99.90
25668;DHT22;18003;-33.830;151.202;2023-08-31T07:42:15;17.10;99.90
25668;DHT22;18003;-33.830;151.202;2023-08-31T07:44:45;17.00;99.90
25668;DHT22;18003;-33.830;151.202;2023-08-31T07:47:16;16.90;99.90
25668;DHT22;18003;-33.830;151.202;2023-08-31T07:49:46;16.90;99.90
25668;DHT22;18003;-33.830;151.202;2023-08-31T07:52:16;16.80;99.90
25668;DHT22;18003;-33.830;151.202;2023-08-31T07:54:47;16.70;99.90
25668;DHT22;18003;-33.830;151.202;2023-08-31T07:57:17;16.40;99.90
25668;DHT22;18003;-33.830;151.202;2023-08-31T07:59:47;16.10;99.90
25668;DHT22;18003;-33.830;151.202;2023-08-31T08:02:17;16.00;99.90
25668;DHT22;18003;-33.830;151.202;2023-08-31T08:04:47;15.90;99.90
25668;DHT22;18003;-33.830;151.202;2023-08-31T08:07:19;15.90;99.90
25668;DHT22;18003;-33.830;151.202;2023-08-31T08:09:49;15.80;99.90
25668;DHT22;18003;-33.830;151.202;2023-08-31T08:12:19;15.70;99.90
25668;DHT22;18003;-33.830;151.202;2023-08-31T08:14:54;15.70;99.90
25668;DHT22;18003;-33.830;151.202;2023-08-31T08:17:21;15.60;99.90
25668;DHT22;18003;-33.830;151.202;2023-08-31T08:19:51;15.60;99.90
25668;DHT22;18003;-33.830;151.202;2023-08-31T08:22:21;15.60;99.90
25668;DHT22;18003;-33.830;151.202;2023-08-31T08:24:51;15.50;99.90
25668;DHT22;18003;-33.830;151.202;2023-08-31T08:27:21;15.50;99.90
25668;DHT22;18003;-33.830;151.202;2023-08-31T08:29:51;15.50;99.90
25668;DHT22;18003;-33.830;151.202;2023-08-31T08:32:21;15.60;99.90
25668;DHT22;18003;-33.830;151.202;2023-08-31T08:34:51;15.60;99.90
25668;DHT22;18003;-33.830;151.202;2023-08-31T08:37:21;15.70;99.90
25668;DHT22;18003;-33.830;151.202;2023-08-31T08:39:56;15.70;99.90
25668;DHT22;18003;-33.830;151.202;2023-08-31T08:42:33;15.80;99.90
25668;DHT22;18003;-33.830;151.202;2023-08-31T08:45:01;15.70;99.90
25668;DHT22;18003;-33.830;151.202;2023-08-31T08:47:35;15.70;99.90
25668;DHT22;18003;-33.830;151.202;2023-08-31T08:50:06;15.60;99.90
25668;DHT22;18003;-33.830;151.202;2023-08-31T08:52:36;15.50;99.90
25668;DHT22;18003;-33.830;151.202;2023-08-31T08:55:07;15.70;99.90
25668;DHT22;18003;-33.830;151.202;2023-08-31T08:57:37;15.90;99.90
25668;DHT22;18003;-33.830;151.202;2023-08-31T09:00:08;16.10;99.90
25668;DHT22;18003;-33.830;151.202;2023-08-31T09:02:38;16.20;99.90
25668;DHT22;18003;-33.830;151.202;2023-08-31T09:05:09;16.30;99.90
25668;DHT22;18003;-33.830;151.202;2023-08-31T09:07:38;16.40;99.90
25668;DHT22;18003;-33.830;151.202;2023-08-31T09:10:11;16.40;99.90
25668;DHT22;18003;-33.830;151.202;2023-08-31T09:12:44;16.50;99.90
25668;DHT22;18003;-33.830;151.202;2023-08-31T09:15:14;16.50;99.90
25668;DHT22;18003;-33.830;151.202;2023-08-31T09:17:44;16.50;99.90
25668;DHT22;18003;-33.830;151.202;2023-08-31T09:20:14;16.50;99.90
25668;DHT22;18003;-33.830;151.202;2023-08-31T09:22:44;16.50;99.90
25668;DHT22;18003;-33.830;151.202;2023-08-31T09:25:14;16.50;99.90
25668;DHT22;18003;-33.830;151.202;2023-08-31T09:27:44;16.50;99.90
25668;DHT22;18003;-33.830;151.202;2023-08-31T09:30:14;16.50;99.90
25668;DHT22;18003;-33.830;151.202;2023-08-31T09:32:44;16.50;99.90
25668;DHT22;18003;-33.830;151.202;2023-08-31T09:35:15;16.50;99.90
25668;DHT22;18003;-33.830;151.202;2023-08-31T09:37:54;16.50;99.90
25668;DHT22;18003;-33.830;151.202;2023-08-31T09:40:17;16.60;99.90
25668;DHT22;18003;-33.830;151.202;2023-08-31T09:42:49;16.50;99.90
25668;DHT22;18003;-33.830;151.202;2023-08-31T09:45:17;16.60;99.90
25668;DHT22;18003;-33.830;151.202;2023-08-31T09:47:47;16.60;99.90
25668;DHT22;18003;-33.830;151.202;2023-08-31T09:50:18;16.60;99.90
25668;DHT22;18003;-33.830;151.202;2023-08-31T09:52:49;16.60;99.90
25668;DHT22;18003;-33.830;151.202;2023-08-31T09:55:21;16.60;99.90
25668;DHT22;18003;-33.830;151.202;2023-08-31T09:57:53;16.50;99.90
25668;DHT22;18003;-33.830;151.202;2023-08-31T10:00:22;16.60;99.90
25668;DHT22;18003;-33.830;151.202;2023-08-31T10:02:54;16.60;99.90
25668;DHT22;18003;-33.830;151.202;2023-08-31T10:05:25;16.60;99.90
25668;DHT22;18003;-33.830;151.202;2023-08-31T10:07:55;16.60;99.90
25668;DHT22;18003;-33.830;151.202;2023-08-31T10:10:25;16.60;99.90
25668;DHT22;18003;-33.830;151.202;2023-08-31T10:12:56;16.60;99.90
25668;DHT22;18003;-33.830;151.202;2023-08-31T10:15:36;16.60;99.90
25668;DHT22;18003;-33.830;151.202;2023-08-31T10:17:57;16.60;99.90
25668;DHT22;18003;-33.830;151.202;2023-08-31T10:20:28;16.60;99.90
25668;DHT22;18003;-33.830;151.202;2023-08-31T10:23:08;16.60;99.90
25668;DHT22;18003;-33.830;151.202;2023-08-31T10:28:23;16.60;99.90
25668;DHT22;18003;-33.830;151.202;2023-08-31T10:31:09;16.60;99.90
25668;DHT22;18003;-33.830;151.202;2023-08-31T10:33:46;16.60;99.90
25668;DHT22;18003;-33.830;151.202;2023-08-31T10:36:17;16.60;99.90
25668;DHT22;18003;-33.830;151.202;2023-08-31T10:41:37;16.60;99.90
25668;DHT22;18003;-33.830;151.202;2023-08-31T10:44:17;16.60;99.90
25668;DHT22;18003;-33.830;151.202;2023-08-31T10:46:42;16.60;99.90
25668;DHT22;18003;-33.830;151.202;2023-08-31T10:49:16;16.50;99.90
25668;DHT22;18003;-33.830;151.202;2023-08-31T10:51:54;16.60;99.90
25668;DHT22;18003;-33.830;151.202;2023-08-31T10:54:22;16.60;99.90
25668;DHT22;18003;-33.830;151.202;2023-08-31T10:59:44;16.50;99.90
25668;DHT22;18003;-33.830;151.202;2023-08-31T11:02:36;16.60;99.90
25668;DHT22;18003;-33.830;151.202;2023-08-31T11:05:19;16.50;99.90
25668;DHT22;18003;-33.830;151.202;2023-08-31T11:07:50;16.50;99.90
25668;DHT22;18003;-33.830;151.202;2023-08-31T11:10:22;16.50;99.90
25668;DHT22;18003;-33.830;151.202;2023-08-31T11:12:55;16.50;99.90
25668;DHT22;18003;-33.830;151.202;2023-08-31T11:15:26;16.40;99.90
25668;DHT22;18003;-33.830;151.202;2023-08-31T11:17:58;16.40;99.90
25668;DHT22;18003;-33.830;151.202;2023-08-31T11:20:28;16.40;99.90
25668;DHT22;18003;-33.830;151.202;2023-08-31T11:22:59;16.40;99.90
25668;DHT22;18003;-33.830;151.202;2023-08-31T11:25:31;16.40;99.90
25668;DHT22;18003;-33.830;151.202;2023-08-31T11:28:02;16.40;99.90
25668;DHT22;18003;-33.830;151.202;2023-08-31T11:30:32;16.40;99.90
25668;DHT22;18003;-33.830;151.202;2023-08-31T11:33:05;16.40;99.90
25668;DHT22;18003;-33.830;151.202;2023-08-31T11:35:54;16.30;99.90
25668;DHT22;18003;-33.830;151.202;2023-08-31T11:38:24;16.30;99.90
25668;DHT22;18003;-33.830;151.202;2023-08-31T11:41:00;16.30;99.90
25668;DHT22;18003;-33.830;151.202;2023-08-31T11:43:27;16.30;99.90
25668;DHT22;18003;-33.830;151.202;2023-08-31T11:45:57;16.30;99.90
25668;DHT22;18003;-33.830;151.202;2023-08-31T11:48:28;16.30;99.90
25668;DHT22;18003;-33.830;151.202;2023-08-31T11:50:58;16.30;99.90
25668;DHT22;18003;-33.830;151.202;2023-08-31T11:53:30;16.30;99.90
25668;DHT22;18003;-33.830;151.202;2023-08-31T11:56:02;16.30;99.90
25668;DHT22;18003;-33.830;151.202;2023-08-31T11:58:32;16.20;99.90
25668;DHT22;18003;-33.830;151.202;2023-08-31T12:01:02;16.20;99.90
25668;DHT22;18003;-33.830;151.202;2023-08-31T12:03:42;16.20;99.90
25668;DHT22;18003;-33.830;151.202;2023-08-31T12:06:04;16.20;99.90
25668;DHT22;18003;-33.830;151.202;2023-08-31T12:08:34;16.20;99.90
25668;DHT22;18003;-33.830;151.202;2023-08-31T12:11:08;16.20;99.90
25668;DHT22;18003;-33.830;151.202;2023-08-31T12:13:39;16.20;99.90
25668;DHT22;18003;-33.830;151.202;2023-08-31T12:16:14;16.20;99.90
25668;DHT22;18003;-33.830;151.202;2023-08-31T12:18:45;16.20;99.90
25668;DHT22;18003;-33.830;151.202;2023-08-31T12:21:15;16.20;99.90
25668;DHT22;18003;-33.830;151.202;2023-08-31T12:23:46;16.20;99.90
25668;DHT22;18003;-33.830;151.202;2023-08-31T12:26:16;16.20;99.90
25668;DHT22;18003;-33.830;151.202;2023-08-31T12:28:47;16.10;99.90
25668;DHT22;18003;-33.830;151.202;2023-08-31T12:31:16;16.10;99.90
25668;DHT22;18003;-33.830;151.202;2023-08-31T12:33:46;16.10;99.90
25668;DHT22;18003;-33.830;151.202;2023-08-31T12:36:16;16.10;99.90
25668;DHT22;18003;-33.830;151.202;2023-08-31T12:38:46;16.10;99.90
25668;DHT22;18003;-33.830;151.202;2023-08-31T12:41:16;16.10;99.90
25668;DHT22;18003;-33.830;151.202;2023-08-31T12:43:48;16.10;99.90
25668;DHT22;18003;-33.830;151.202;2023-08-31T12:46:18;16.10;99.90
25668;DHT22;18003;-33.830;151.202;2023-08-31T12:48:47;16.10;99.90
25668;DHT22;18003;-33.830;151.202;2023-08-31T12:51:18;16.00;99.90
25668;DHT22;18003;-33.830;151.202;2023-08-31T12:53:48;16.00;99.90
25668;DHT22;18003;-33.830;151.202;2023-08-31T12:56:18;16.00;99.90
25668;DHT22;18003;-33.830;151.202;2023-08-31T12:58:51;16.00;99.90
25668;DHT22;18003;-33.830;151.202;2023-08-31T13:01:21;16.00;99.90
25668;DHT22;18003;-33.830;151.202;2023-08-31T13:03:54;16.00;99.90
25668;DHT22;18003;-33.830;151.202;2023-08-31T13:06:24;16.00;99.90
25668;DHT22;18003;-33.830;151.202;2023-08-31T13:08:54;16.00;99.90
25668;DHT22;18003;-33.830;151.202;2023-08-31T13:11:24;16.00;99.90
25668;DHT22;18003;-33.830;151.202;2023-08-31T13:13:55;16.00;99.90
25668;DHT22;18003;-33.830;151.202;2023-08-31T13:16:25;15.90;99.90
25668;DHT22;18003;-33.830;151.202;2023-08-31T13:18:56;15.90;99.90
25668;DHT22;18003;-33.830;151.202;2023-08-31T13:21:27;15.90;99.90
25668;DHT22;18003;-33.830;151.202;2023-08-31T13:23:57;15.90;99.90
25668;DHT22;18003;-33.830;151.202;2023-08-31T13:26:28;15.90;99.90
25668;DHT22;18003;-33.830;151.202;2023-08-31T13:28:58;15.80;99.90
25668;DHT22;18003;-33.830;151.202;2023-08-31T13:31:28;15.80;99.90
25668;DHT22;18003;-33.830;151.202;2023-08-31T13:33:58;15.80;99.90
25668;DHT22;18003;-33.830;151.202;2023-08-31T13:36:28;15.80;99.90
25668;DHT22;18003;-33.830;151.202;2023-08-31T13:38:58;15.80;99.90
25668;DHT22;18003;-33.830;151.202;2023-08-31T13:41:28;15.80;99.90
25668;DHT22;18003;-33.830;151.202;2023-08-31T13:43:58;15.80;99.90
25668;DHT22;18003;-33.830;151.202;2023-08-31T13:46:28;15.80;99.90
25668;DHT22;18003;-33.830;151.202;2023-08-31T13:48:59;15.80;99.90
25668;DHT22;18003;-33.830;151.202;2023-08-31T13:51:30;15.80;99.90
25668;DHT22;18003;-33.830;151.202;2023-08-31T13:54:00;15.80;99.90
25668;DHT22;18003;-33.830;151.202;2023-08-31T13:56:31;15.80;99.90
25668;DHT22;18003;-33.830;151.202;2023-08-31T13:59:02;15.80;99.90
25668;DHT22;18003;-33.830;151.202;2023-08-31T14:01:32;15.80;99.90
25668;DHT22;18003;-33.830;151.202;2023-08-31T14:04:02;15.80;99.90
25668;DHT22;18003;-33.830;151.202;2023-08-31T14:06:32;15.80;99.90
25668;DHT22;18003;-33.830;151.202;2023-08-31T14:09:02;15.80;99.90
25668;DHT22;18003;-33.830;151.202;2023-08-31T14:11:33;15.80;99.90
25668;DHT22;18003;-33.830;151.202;2023-08-31T14:14:04;15.80;99.90
25668;DHT22;18003;-33.830;151.202;2023-08-31T14:16:36;15.80;99.90
25668;DHT22;18003;-33.830;151.202;2023-08-31T14:19:06;15.80;99.90
25668;DHT22;18003;-33.830;151.202;2023-08-31T14:21:44;15.80;99.90
25668;DHT22;18003;-33.830;151.202;2023-08-31T14:24:14;15.80;99.90
25668;DHT22;18003;-33.830;151.202;2023-08-31T14:26:44;15.80;99.90
25668;DHT22;18003;-33.830;151.202;2023-08-31T14:29:14;15.80;99.90
25668;DHT22;18003;-33.830;151.202;2023-08-31T14:31:45;15.80;99.90
25668;DHT22;18003;-33.830;151.202;2023-08-31T14:34:15;15.80;99.90
25668;DHT22;18003;-33.830;151.202;2023-08-31T14:36:45;15.80;99.90
25668;DHT22;18003;-33.830;151.202;2023-08-31T14:39:15;15.80;99.90
25668;DHT22;18003;-33.830;151.202;2023-08-31T14:41:46;15.80;99.90
25668;DHT22;18003;-33.830;151.202;2023-08-31T14:44:16;15.80;99.90
25668;DHT22;18003;-33.830;151.202;2023-08-31T14:46:46;15.80;99.90
25668;DHT22;18003;-33.830;151.202;2023-08-31T14:49:16;15.80;99.90
25668;DHT22;18003;-33.830;151.202;2023-08-31T14:51:45;15.80;99.90
25668;DHT22;18003;-33.830;151.202;2023-08-31T14:54:15;15.80;99.90
25668;DHT22;18003;-33.830;151.202;2023-08-31T14:56:45;15.90;99.90
25668;DHT22;18003;-33.830;151.202;2023-08-31T14:59:15;15.90;99.90
25668;DHT22;18003;-33.830;151.202;2023-08-31T15:01:46;15.90;99.90
25668;DHT22;18003;-33.830;151.202;2023-08-31T15:04:16;15.90;99.90
25668;DHT22;18003;-33.830;151.202;2023-08-31T15:06:46;15.90;99.90
25668;DHT22;18003;-33.830;151.202;2023-08-31T15:09:16;15.90;99.90
25668;DHT22;18003;-33.830;151.202;2023-08-31T15:11:46;15.90;99.90
25668;DHT22;18003;-33.830;151.202;2023-08-31T15:14:15;15.90;99.90
25668;DHT22;18003;-33.830;151.202;2023-08-31T15:16:45;15.90;99.90
25668;DHT22;18003;-33.830;151.202;2023-08-31T15:19:15;15.90;99.90